sensor_id;sensor_type;location;lat;lon;timestamp;P1;durP1;ratioP1;P2;durP2;ratioP2
22644;SDS011;11489;50.834;6.752;2023-11-21T00:01:01;21.00;;;10.77;;
22644;SDS011;11489;50.834;6.752;2023-11-21T00:03:29;21.60;;;10.70;;
22644;SDS011;11489;50.834;6.752;2023-11-21T00:05:55;18.33;;;10.82;;
22644;SDS011;11489;50.834;6.752;2023-11-21T00:08:21;19.17;;;10.73;;
22644;SDS011;11489;50.834;6.752;2023-11-21T00:10:47;18.77;;;11.02;;
22644;SDS011;11489;50.834;6.752;2023-11-21T00:13:13;21.20;;;11.18;;
22644;SDS011;11489;50.834;6.752;2023-11-21T00:15:39;23.63;;;11.32;;
22644;SDS011;11489;50.834;6.752;2023-11-21T00:18:05;20.70;;;12.25;;
22644;SDS011;11489;50.834;6.752;2023-11-21T00:20:31;24.23;;;12.77;;
22644;SDS011;11489;50.834;6.752;2023-11-21T00:22:57;26.52;;;14.68;;
22644;SDS011;11489;50.834;6.752;2023-11-21T00:25:24;24.40;;;12.82;;
22644;SDS011;11489;50.834;6.752;2023-11-21T00:27:50;26.20;;;13.70;;
22644;SDS011;11489;50.834;6.752;2023-11-21T00:30:15;29.55;;;14.02;;
22644;SDS011;11489;50.834;6.752;2023-11-21T00:32:41;28.48;;;13.23;;
22644;SDS011;11489;50.834;6.752;2023-11-21T00:35:07;23.90;;;13.93;;
22644;SDS011;11489;50.834;6.752;2023-11-21T00:37:33;25.73;;;13.38;;
22644;SDS011;11489;50.834;6.752;2023-11-21T00:39:58;26.25;;;13.45;;
22644;SDS011;11489;50.834;6.752;2023-11-21T00:42:24;29.30;;;13.85;;
22644;SDS011;11489;50.834;6.752;2023-11-21T00:44:50;25.33;;;12.98;;
22644;SDS011;11489;50.834;6.752;2023-11-21T00:47:16;26.85;;;13.85;;
22644;SDS011;11489;50.834;6.752;2023-11-21T00:49:41;25.80;;;13.82;;
22644;SDS011;11489;50.834;6.752;2023-11-21T00:52:07;33.15;;;15.48;;
22644;SDS011;11489;50.834;6.752;2023-11-21T00:54:33;30.95;;;14.13;;
22644;SDS011;11489;50.834;6.752;2023-11-21T00:56:59;28.05;;;14.77;;
22644;SDS011;11489;50.834;6.752;2023-11-21T00:59:24;30.00;;;15.00;;
22644;SDS011;11489;50.834;6.752;2023-11-21T01:01:50;30.92;;;16.85;;
22644;SDS011;11489;50.834;6.752;2023-11-21T01:04:16;29.25;;;15.35;;
22644;SDS011;11489;50.834;6.752;2023-11-21T01:06:42;29.67;;;16.02;;
22644;SDS011;11489;50.834;6.752;2023-11-21T01:09:07;32.78;;;16.10;;
22644;SDS011;11489;50.834;6.752;2023-11-21T01:11:36;37.20;;;16.80;;
22644;SDS011;11489;50.834;6.752;2023-11-21T01:14:06;32.97;;;16.30;;
22644;SDS011;11489;50.834;6.752;2023-11-21T01:16:33;33.30;;;16.45;;
22644;SDS011;11489;50.834;6.752;2023-11-21T01:18:59;33.17;;;16.48;;
22644;SDS011;11489;50.834;6.752;2023-11-21T01:21:26;40.78;;;17.55;;
22644;SDS011;11489;50.834;6.752;2023-11-21T01:23:53;35.63;;;17.23;;
22644;SDS011;11489;50.834;6.752;2023-11-21T01:26:20;33.40;;;17.20;;
22644;SDS011;11489;50.834;6.752;2023-11-21T01:28:46;33.67;;;16.92;;
22644;SDS011;11489;50.834;6.752;2023-11-21T01:31:14;33.40;;;16.98;;
22644;SDS011;11489;50.834;6.752;2023-11-21T01:33:40;34.53;;;17.05;;
22644;SDS011;11489;50.834;6.752;2023-11-21T01:36:06;30.55;;;15.85;;
22644;SDS011;11489;50.834;6.752;2023-11-21T01:38:32;34.83;;;17.05;;
22644;SDS011;11489;50.834;6.752;2023-11-21T01:40:57;35.28;;;17.38;;
22644;SDS011;11489;50.834;6.752;2023-11-21T01:43:26;31.48;;;15.95;;
22644;SDS011;11489;50.834;6.752;2023-11-21T01:45:52;31.27;;;16.25;;
22644;SDS011;11489;50.834;6.752;2023-11-21T01:48:24;27.20;;;16.27;;
22644;SDS011;11489;50.834;6.752;2023-11-21T01:50:51;30.85;;;16.63;;
22644;SDS011;11489;50.834;6.752;2023-11-21T01:53:17;30.75;;;16.08;;
22644;SDS011;11489;50.834;6.752;2023-11-21T01:55:43;31.33;;;15.57;;
22644;SDS011;11489;50.834;6.752;2023-11-21T01:58:10;31.83;;;16.75;;
22644;SDS011;11489;50.834;6.752;2023-11-21T02:00:37;34.70;;;16.83;;
22644;SDS011;11489;50.834;6.752;2023-11-21T02:03:03;30.83;;;15.80;;
22644;SDS011;11489;50.834;6.752;2023-11-21T02:05:29;27.27;;;15.88;;
22644;SDS011;11489;50.834;6.752;2023-11-21T02:07:55;33.17;;;17.02;;
22644;SDS011;11489;50.834;6.752;2023-11-21T02:10:21;31.48;;;16.42;;
22644;SDS011;11489;50.834;6.752;2023-11-21T02:12:50;30.58;;;16.60;;
22644;SDS011;11489;50.834;6.752;2023-11-21T02:15:16;30.60;;;16.08;;
22644;SDS011;11489;50.834;6.752;2023-11-21T02:17:48;30.10;;;16.23;;
22644;SDS011;11489;50.834;6.752;2023-11-21T02:20:19;28.65;;;16.45;;
22644;SDS011;11489;50.834;6.752;2023-11-21T02:22:55;29.45;;;15.57;;
22644;SDS011;11489;50.834;6.752;2023-11-21T02:25:25;29.10;;;16.40;;
22644;SDS011;11489;50.834;6.752;2023-11-21T02:27:55;33.28;;;16.92;;
22644;SDS011;11489;50.834;6.752;2023-11-21T02:30:27;31.60;;;15.57;;
22644;SDS011;11489;50.834;6.752;2023-11-21T02:32:53;31.10;;;16.05;;
22644;SDS011;11489;50.834;6.752;2023-11-21T02:35:20;29.38;;;15.48;;
22644;SDS011;11489;50.834;6.752;2023-11-21T02:37:51;29.88;;;15.30;;
22644;SDS011;11489;50.834;6.752;2023-11-21T02:40:16;34.33;;;16.33;;
22644;SDS011;11489;50.834;6.752;2023-11-21T02:42:45;28.95;;;15.52;;
22644;SDS011;11489;50.834;6.752;2023-11-21T02:45:13;28.38;;;15.73;;
22644;SDS011;11489;50.834;6.752;2023-11-21T02:47:41;26.42;;;15.23;;
22644;SDS011;11489;50.834;6.752;2023-11-21T02:50:08;30.23;;;15.15;;
22644;SDS011;11489;50.834;6.752;2023-11-21T02:52:34;27.23;;;14.48;;
22644;SDS011;11489;50.834;6.752;2023-11-21T02:55:01;27.42;;;13.88;;
22644;SDS011;11489;50.834;6.752;2023-11-21T02:57:27;31.25;;;14.90;;
22644;SDS011;11489;50.834;6.752;2023-11-21T02:59:52;27.92;;;14.63;;
22644;SDS011;11489;50.834;6.752;2023-11-21T03:02:18;32.15;;;15.10;;
22644;SDS011;11489;50.834;6.752;2023-11-21T03:04:43;31.15;;;13.85;;
22644;SDS011;11489;50.834;6.752;2023-11-21T03:07:09;27.90;;;14.98;;
22644;SDS011;11489;50.834;6.752;2023-11-21T03:09:35;27.42;;;14.75;;
22644;SDS011;11489;50.834;6.752;2023-11-21T03:12:01;24.80;;;13.75;;
22644;SDS011;11489;50.834;6.752;2023-11-21T03:14:27;24.35;;;13.52;;
22644;SDS011;11489;50.834;6.752;2023-11-21T03:16:52;28.90;;;14.23;;
22644;SDS011;11489;50.834;6.752;2023-11-21T03:19:18;29.42;;;14.93;;
22644;SDS011;11489;50.834;6.752;2023-11-21T03:21:44;29.58;;;14.80;;
22644;SDS011;11489;50.834;6.752;2023-11-21T03:24:09;27.15;;;14.02;;
22644;SDS011;11489;50.834;6.752;2023-11-21T03:26:35;28.35;;;14.77;;
22644;SDS011;11489;50.834;6.752;2023-11-21T03:29:02;25.83;;;13.82;;
22644;SDS011;11489;50.834;6.752;2023-11-21T03:31:29;24.58;;;13.02;;
22644;SDS011;11489;50.834;6.752;2023-11-21T03:33:56;23.08;;;12.13;;
22644;SDS011;11489;50.834;6.752;2023-11-21T03:36:21;24.70;;;12.82;;
22644;SDS011;11489;50.834;6.752;2023-11-21T03:38:47;26.35;;;13.57;;
22644;SDS011;11489;50.834;6.752;2023-11-21T03:41:15;29.73;;;13.45;;
22644;SDS011;11489;50.834;6.752;2023-11-21T03:43:40;25.75;;;13.18;;
22644;SDS011;11489;50.834;6.752;2023-11-21T03:46:06;25.02;;;13.40;;
22644;SDS011;11489;50.834;6.752;2023-11-21T03:48:32;24.83;;;13.00;;
22644;SDS011;11489;50.834;6.752;2023-11-21T03:50:58;22.30;;;13.32;;
22644;SDS011;11489;50.834;6.752;2023-11-21T03:53:24;26.80;;;14.05;;
22644;SDS011;11489;50.834;6.752;2023-11-21T03:55:49;26.45;;;13.90;;
22644;SDS011;11489;50.834;6.752;2023-11-21T03:58:15;24.08;;;12.93;;
22644;SDS011;11489;50.834;6.752;2023-11-21T04:00:41;28.20;;;13.40;;
22644;SDS011;11489;50.834;6.752;2023-11-21T04:03:06;25.27;;;13.10;;
22644;SDS011;11489;50.834;6.752;2023-11-21T04:05:32;25.88;;;13.50;;
22644;SDS011;11489;50.834;6.752;2023-11-21T04:07:57;27.52;;;13.70;;
22644;SDS011;11489;50.834;6.752;2023-11-21T04:10:23;25.58;;;13.82;;
22644;SDS011;11489;50.834;6.752;2023-11-21T04:12:49;26.77;;;13.50;;
22644;SDS011;11489;50.834;6.752;2023-11-21T04:15:14;22.92;;;12.63;;
22644;SDS011;11489;50.834;6.752;2023-11-21T04:17:41;25.52;;;13.70;;
22644;SDS011;11489;50.834;6.752;2023-11-21T04:20:07;28.25;;;14.07;;
22644;SDS011;11489;50.834;6.752;2023-11-21T04:22:41;23.13;;;12.50;;
22644;SDS011;11489;50.834;6.752;2023-11-21T04:25:09;24.50;;;12.88;;
22644;SDS011;11489;50.834;6.752;2023-11-21T04:27:36;23.63;;;12.85;;
22644;SDS011;11489;50.834;6.752;2023-11-21T04:30:03;24.95;;;13.05;;
22644;SDS011;11489;50.834;6.752;2023-11-21T04:32:30;24.60;;;12.90;;
22644;SDS011;11489;50.834;6.752;2023-11-21T04:34:56;25.10;;;12.57;;
22644;SDS011;11489;50.834;6.752;2023-11-21T04:37:21;23.20;;;11.98;;
22644;SDS011;11489;50.834;6.752;2023-11-21T04:39:47;23.83;;;12.45;;
22644;SDS011;11489;50.834;6.752;2023-11-21T04:42:13;22.40;;;12.10;;
22644;SDS011;11489;50.834;6.752;2023-11-21T04:44:39;21.80;;;11.80;;
22644;SDS011;11489;50.834;6.752;2023-11-21T04:47:06;27.27;;;12.85;;
22644;SDS011;11489;50.834;6.752;2023-11-21T04:49:32;23.85;;;13.07;;
22644;SDS011;11489;50.834;6.752;2023-11-21T04:51:58;23.10;;;12.77;;
22644;SDS011;11489;50.834;6.752;2023-11-21T04:54:24;24.02;;;12.88;;
22644;SDS011;11489;50.834;6.752;2023-11-21T04:56:50;26.77;;;12.10;;
22644;SDS011;11489;50.834;6.752;2023-11-21T04:59:15;23.42;;;11.75;;
22644;SDS011;11489;50.834;6.752;2023-11-21T05:01:41;21.98;;;12.50;;
22644;SDS011;11489;50.834;6.752;2023-11-21T05:04:07;21.77;;;11.75;;
22644;SDS011;11489;50.834;6.752;2023-11-21T05:06:34;21.02;;;11.27;;
22644;SDS011;11489;50.834;6.752;2023-11-21T05:08:59;21.55;;;11.88;;
22644;SDS011;11489;50.834;6.752;2023-11-21T05:11:26;20.40;;;11.60;;
22644;SDS011;11489;50.834;6.752;2023-11-21T05:13:52;20.80;;;11.68;;
22644;SDS011;11489;50.834;6.752;2023-11-21T05:16:18;21.13;;;11.15;;
22644;SDS011;11489;50.834;6.752;2023-11-21T05:18:44;21.48;;;11.73;;
22644;SDS011;11489;50.834;6.752;2023-11-21T05:21:10;24.85;;;12.25;;
22644;SDS011;11489;50.834;6.752;2023-11-21T05:23:36;24.00;;;12.32;;
22644;SDS011;11489;50.834;6.752;2023-11-21T05:26:02;22.23;;;11.90;;
22644;SDS011;11489;50.834;6.752;2023-11-21T05:28:28;24.17;;;12.02;;
22644;SDS011;11489;50.834;6.752;2023-11-21T05:30:54;23.30;;;12.48;;
22644;SDS011;11489;50.834;6.752;2023-11-21T05:33:20;24.10;;;12.18;;
22644;SDS011;11489;50.834;6.752;2023-11-21T05:35:46;24.23;;;12.07;;
22644;SDS011;11489;50.834;6.752;2023-11-21T05:38:13;22.45;;;12.70;;
22644;SDS011;11489;50.834;6.752;2023-11-21T05:40:39;21.80;;;11.57;;
22644;SDS011;11489;50.834;6.752;2023-11-21T05:43:05;23.15;;;11.52;;
22644;SDS011;11489;50.834;6.752;2023-11-21T05:45:31;19.40;;;11.15;;
22644;SDS011;11489;50.834;6.752;2023-11-21T05:47:58;24.67;;;12.07;;
22644;SDS011;11489;50.834;6.752;2023-11-21T05:50:23;23.77;;;13.15;;
22644;SDS011;11489;50.834;6.752;2023-11-21T05:52:49;26.20;;;12.93;;
22644;SDS011;11489;50.834;6.752;2023-11-21T05:55:15;26.67;;;12.43;;
22644;SDS011;11489;50.834;6.752;2023-11-21T05:57:42;23.30;;;12.35;;
22644;SDS011;11489;50.834;6.752;2023-11-21T06:00:09;24.15;;;13.23;;
22644;SDS011;11489;50.834;6.752;2023-11-21T06:02:38;22.25;;;12.07;;
22644;SDS011;11489;50.834;6.752;2023-11-21T06:05:05;21.40;;;10.93;;
22644;SDS011;11489;50.834;6.752;2023-11-21T06:07:32;28.67;;;13.55;;
22644;SDS011;11489;50.834;6.752;2023-11-21T06:09:57;25.95;;;12.38;;
22644;SDS011;11489;50.834;6.752;2023-11-21T06:12:23;22.05;;;11.52;;
22644;SDS011;11489;50.834;6.752;2023-11-21T06:14:49;21.63;;;11.63;;
22644;SDS011;11489;50.834;6.752;2023-11-21T06:17:14;21.05;;;11.35;;
22644;SDS011;11489;50.834;6.752;2023-11-21T06:19:40;20.15;;;11.68;;
22644;SDS011;11489;50.834;6.752;2023-11-21T06:22:06;26.63;;;13.32;;
22644;SDS011;11489;50.834;6.752;2023-11-21T06:24:31;27.20;;;13.13;;
22644;SDS011;11489;50.834;6.752;2023-11-21T06:26:57;23.83;;;12.27;;
22644;SDS011;11489;50.834;6.752;2023-11-21T06:29:23;23.98;;;12.00;;
22644;SDS011;11489;50.834;6.752;2023-11-21T06:31:49;23.23;;;11.48;;
22644;SDS011;11489;50.834;6.752;2023-11-21T06:34:15;23.17;;;11.40;;
22644;SDS011;11489;50.834;6.752;2023-11-21T06:36:40;21.60;;;12.32;;
22644;SDS011;11489;50.834;6.752;2023-11-21T06:39:06;23.33;;;11.40;;
22644;SDS011;11489;50.834;6.752;2023-11-21T06:41:33;21.42;;;11.10;;
22644;SDS011;11489;50.834;6.752;2023-11-21T06:43:59;21.98;;;12.02;;
22644;SDS011;11489;50.834;6.752;2023-11-21T06:46:24;21.50;;;11.60;;
22644;SDS011;11489;50.834;6.752;2023-11-21T06:48:50;20.52;;;11.18;;
22644;SDS011;11489;50.834;6.752;2023-11-21T06:51:16;22.35;;;11.38;;
22644;SDS011;11489;50.834;6.752;2023-11-21T06:53:41;27.73;;;11.45;;
22644;SDS011;11489;50.834;6.752;2023-11-21T06:56:19;24.90;;;12.00;;
22644;SDS011;11489;50.834;6.752;2023-11-21T06:58:45;22.30;;;12.10;;
22644;SDS011;11489;50.834;6.752;2023-11-21T07:01:14;27.05;;;13.23;;
22644;SDS011;11489;50.834;6.752;2023-11-21T07:03:40;24.95;;;12.52;;
22644;SDS011;11489;50.834;6.752;2023-11-21T07:06:06;23.70;;;12.93;;
22644;SDS011;11489;50.834;6.752;2023-11-21T07:08:35;23.92;;;12.63;;
22644;SDS011;11489;50.834;6.752;2023-11-21T07:11:02;25.35;;;12.43;;
22644;SDS011;11489;50.834;6.752;2023-11-21T07:13:28;22.02;;;12.52;;
22644;SDS011;11489;50.834;6.752;2023-11-21T07:15:54;21.67;;;12.82;;
22644;SDS011;11489;50.834;6.752;2023-11-21T07:18:19;27.33;;;13.00;;
22644;SDS011;11489;50.834;6.752;2023-11-21T07:20:45;28.73;;;13.25;;
22644;SDS011;11489;50.834;6.752;2023-11-21T07:23:11;25.23;;;13.13;;
22644;SDS011;11489;50.834;6.752;2023-11-21T07:25:37;25.95;;;12.80;;
22644;SDS011;11489;50.834;6.752;2023-11-21T07:28:02;31.63;;;14.48;;
22644;SDS011;11489;50.834;6.752;2023-11-21T07:30:30;30.58;;;15.18;;
22644;SDS011;11489;50.834;6.752;2023-11-21T07:32:56;24.98;;;13.30;;
22644;SDS011;11489;50.834;6.752;2023-11-21T07:35:21;26.75;;;14.30;;
22644;SDS011;11489;50.834;6.752;2023-11-21T07:37:47;29.48;;;13.98;;
22644;SDS011;11489;50.834;6.752;2023-11-21T07:40:14;27.05;;;13.63;;
22644;SDS011;11489;50.834;6.752;2023-11-21T07:42:41;31.20;;;13.73;;
22644;SDS011;11489;50.834;6.752;2023-11-21T07:45:08;31.85;;;14.40;;
22644;SDS011;11489;50.834;6.752;2023-11-21T07:47:34;29.70;;;14.32;;
22644;SDS011;11489;50.834;6.752;2023-11-21T07:50:00;32.33;;;15.15;;
22644;SDS011;11489;50.834;6.752;2023-11-21T07:52:29;31.10;;;14.65;;
22644;SDS011;11489;50.834;6.752;2023-11-21T07:54:54;28.20;;;13.75;;
22644;SDS011;11489;50.834;6.752;2023-11-21T07:57:21;31.35;;;14.80;;
22644;SDS011;11489;50.834;6.752;2023-11-21T07:59:46;28.38;;;13.93;;
22644;SDS011;11489;50.834;6.752;2023-11-21T08:02:12;30.80;;;16.00;;
22644;SDS011;11489;50.834;6.752;2023-11-21T08:04:38;34.88;;;15.98;;
22644;SDS011;11489;50.834;6.752;2023-11-21T08:07:03;36.42;;;17.25;;
22644;SDS011;11489;50.834;6.752;2023-11-21T08:09:29;30.48;;;15.07;;
22644;SDS011;11489;50.834;6.752;2023-11-21T08:11:55;33.38;;;15.50;;
22644;SDS011;11489;50.834;6.752;2023-11-21T08:14:21;30.80;;;14.90;;
22644;SDS011;11489;50.834;6.752;2023-11-21T08:16:50;29.20;;;14.85;;
22644;SDS011;11489;50.834;6.752;2023-11-21T08:19:17;29.85;;;14.38;;
22644;SDS011;11489;50.834;6.752;2023-11-21T08:21:43;26.58;;;13.95;;
22644;SDS011;11489;50.834;6.752;2023-11-21T08:24:10;28.80;;;15.18;;
22644;SDS011;11489;50.834;6.752;2023-11-21T08:26:39;28.05;;;13.80;;
22644;SDS011;11489;50.834;6.752;2023-11-21T08:29:04;28.88;;;14.07;;
22644;SDS011;11489;50.834;6.752;2023-11-21T08:31:32;29.60;;;14.88;;
22644;SDS011;11489;50.834;6.752;2023-11-21T08:33:57;35.42;;;15.63;;
22644;SDS011;11489;50.834;6.752;2023-11-21T08:36:23;30.63;;;14.65;;
22644;SDS011;11489;50.834;6.752;2023-11-21T08:38:49;35.80;;;14.88;;
22644;SDS011;11489;50.834;6.752;2023-11-21T08:41:17;28.92;;;14.35;;
22644;SDS011;11489;50.834;6.752;2023-11-21T08:43:47;30.27;;;15.07;;
22644;SDS011;11489;50.834;6.752;2023-11-21T08:46:13;26.65;;;14.32;;
22644;SDS011;11489;50.834;6.752;2023-11-21T08:48:40;27.50;;;14.23;;
22644;SDS011;11489;50.834;6.752;2023-11-21T08:51:06;33.22;;;15.23;;
22644;SDS011;11489;50.834;6.752;2023-11-21T08:53:32;30.15;;;14.23;;
22644;SDS011;11489;50.834;6.752;2023-11-21T08:55:58;31.95;;;14.65;;
22644;SDS011;11489;50.834;6.752;2023-11-21T08:58:23;32.45;;;14.50;;
22644;SDS011;11489;50.834;6.752;2023-11-21T09:00:49;38.90;;;15.93;;
22644;SDS011;11489;50.834;6.752;2023-11-21T09:03:15;35.97;;;15.15;;
22644;SDS011;11489;50.834;6.752;2023-11-21T09:05:40;36.17;;;15.93;;
22644;SDS011;11489;50.834;6.752;2023-11-21T09:08:06;36.13;;;15.88;;
22644;SDS011;11489;50.834;6.752;2023-11-21T09:10:33;39.92;;;16.67;;
22644;SDS011;11489;50.834;6.752;2023-11-21T09:13:01;40.00;;;15.23;;
22644;SDS011;11489;50.834;6.752;2023-11-21T09:15:27;35.25;;;15.65;;
22644;SDS011;11489;50.834;6.752;2023-11-21T09:17:53;38.13;;;15.80;;
22644;SDS011;11489;50.834;6.752;2023-11-21T09:20:18;34.25;;;15.45;;
22644;SDS011;11489;50.834;6.752;2023-11-21T09:22:48;39.47;;;17.00;;
22644;SDS011;11489;50.834;6.752;2023-11-21T09:25:14;46.17;;;16.05;;
22644;SDS011;11489;50.834;6.752;2023-11-21T09:27:40;38.75;;;15.70;;
22644;SDS011;11489;50.834;6.752;2023-11-21T09:30:06;39.38;;;16.42;;
22644;SDS011;11489;50.834;6.752;2023-11-21T09:32:37;37.90;;;15.18;;
22644;SDS011;11489;50.834;6.752;2023-11-21T09:35:06;34.80;;;15.50;;
22644;SDS011;11489;50.834;6.752;2023-11-21T09:37:35;43.63;;;16.88;;
22644;SDS011;11489;50.834;6.752;2023-11-21T09:40:03;45.85;;;17.33;;
22644;SDS011;11489;50.834;6.752;2023-11-21T09:42:32;40.70;;;16.98;;
22644;SDS011;11489;50.834;6.752;2023-11-21T09:45:18;42.03;;;16.60;;
22644;SDS011;11489;50.834;6.752;2023-11-21T09:47:50;39.03;;;16.30;;
22644;SDS011;11489;50.834;6.752;2023-11-21T09:50:19;39.55;;;16.17;;
22644;SDS011;11489;50.834;6.752;2023-11-21T09:55:29;40.15;;;16.95;;
22644;SDS011;11489;50.834;6.752;2023-11-21T09:58:00;43.63;;;15.95;;
22644;SDS011;11489;50.834;6.752;2023-11-21T10:00:28;38.55;;;15.77;;
22644;SDS011;11489;50.834;6.752;2023-11-21T10:02:58;40.83;;;16.27;;
22644;SDS011;11489;50.834;6.752;2023-11-21T10:05:24;38.58;;;15.80;;
22644;SDS011;11489;50.834;6.752;2023-11-21T10:07:50;37.22;;;15.73;;
22644;SDS011;11489;50.834;6.752;2023-11-21T10:10:20;41.17;;;15.70;;
22644;SDS011;11489;50.834;6.752;2023-11-21T10:12:48;45.47;;;16.70;;
22644;SDS011;11489;50.834;6.752;2023-11-21T10:15:18;42.10;;;16.83;;
22644;SDS011;11489;50.834;6.752;2023-11-21T10:17:46;37.55;;;16.23;;
22644;SDS011;11489;50.834;6.752;2023-11-21T10:20:14;43.20;;;16.60;;
22644;SDS011;11489;50.834;6.752;2023-11-21T10:22:41;42.83;;;16.23;;
22644;SDS011;11489;50.834;6.752;2023-11-21T10:25:11;40.05;;;15.10;;
22644;SDS011;11489;50.834;6.752;2023-11-21T10:27:39;39.88;;;16.08;;
22644;SDS011;11489;50.834;6.752;2023-11-21T10:30:06;44.60;;;16.70;;
22644;SDS011;11489;50.834;6.752;2023-11-21T10:32:37;39.25;;;16.08;;
22644;SDS011;11489;50.834;6.752;2023-11-21T10:35:07;38.65;;;15.45;;
22644;SDS011;11489;50.834;6.752;2023-11-21T10:37:41;36.38;;;15.40;;
22644;SDS011;11489;50.834;6.752;2023-11-21T10:40:09;37.53;;;14.40;;
22644;SDS011;11489;50.834;6.752;2023-11-21T10:42:38;39.75;;;15.88;;
22644;SDS011;11489;50.834;6.752;2023-11-21T10:45:05;40.13;;;14.55;;
22644;SDS011;11489;50.834;6.752;2023-11-21T10:47:39;36.08;;;14.80;;
22644;SDS011;11489;50.834;6.752;2023-11-21T10:50:09;28.58;;;13.07;;
22644;SDS011;11489;50.834;6.752;2023-11-21T10:52:37;31.90;;;13.18;;
22644;SDS011;11489;50.834;6.752;2023-11-21T10:55:25;31.08;;;13.52;;
22644;SDS011;11489;50.834;6.752;2023-11-21T10:57:52;38.08;;;15.05;;
22644;SDS011;11489;50.834;6.752;2023-11-21T11:00:19;33.22;;;13.18;;
22644;SDS011;11489;50.834;6.752;2023-11-21T11:02:50;32.10;;;13.13;;
22644;SDS011;11489;50.834;6.752;2023-11-21T11:05:20;30.95;;;13.48;;
22644;SDS011;11489;50.834;6.752;2023-11-21T11:07:50;30.70;;;12.85;;
22644;SDS011;11489;50.834;6.752;2023-11-21T11:10:29;33.95;;;13.55;;
22644;SDS011;11489;50.834;6.752;2023-11-21T11:12:55;33.50;;;12.77;;
22644;SDS011;11489;50.834;6.752;2023-11-21T11:15:25;35.00;;;13.38;;
22644;SDS011;11489;50.834;6.752;2023-11-21T11:17:52;38.28;;;14.25;;
22644;SDS011;11489;50.834;6.752;2023-11-21T11:20:22;38.50;;;14.75;;
22644;SDS011;11489;50.834;6.752;2023-11-21T11:28:15;35.42;;;13.27;;
22644;SDS011;11489;50.834;6.752;2023-11-21T11:30:47;31.70;;;12.45;;
22644;SDS011;11489;50.834;6.752;2023-11-21T11:33:45;37.08;;;13.70;;
22644;SDS011;11489;50.834;6.752;2023-11-21T11:36:29;37.33;;;12.73;;
22644;SDS011;11489;50.834;6.752;2023-11-21T11:39:03;35.65;;;13.23;;
22644;SDS011;11489;50.834;6.752;2023-11-21T11:41:56;34.33;;;12.05;;
22644;SDS011;11489;50.834;6.752;2023-11-21T11:47:21;32.95;;;13.40;;
22644;SDS011;11489;50.834;6.752;2023-11-21T11:49:56;36.17;;;13.52;;
22644;SDS011;11489;50.834;6.752;2023-11-21T11:55:13;32.58;;;12.95;;
22644;SDS011;11489;50.834;6.752;2023-11-21T11:57:40;36.10;;;12.27;;
22644;SDS011;11489;50.834;6.752;2023-11-21T12:00:13;33.67;;;13.05;;
22644;SDS011;11489;50.834;6.752;2023-11-21T12:02:42;35.50;;;12.63;;
22644;SDS011;11489;50.834;6.752;2023-11-21T12:05:10;36.20;;;12.38;;
22644;SDS011;11489;50.834;6.752;2023-11-21T12:10:19;35.00;;;13.45;;
22644;SDS011;11489;50.834;6.752;2023-11-21T12:12:54;34.08;;;13.18;;
22644;SDS011;11489;50.834;6.752;2023-11-21T12:15:21;30.88;;;12.00;;
22644;SDS011;11489;50.834;6.752;2023-11-21T12:17:48;31.42;;;12.27;;
22644;SDS011;11489;50.834;6.752;2023-11-21T12:20:15;35.78;;;12.27;;
22644;SDS011;11489;50.834;6.752;2023-11-21T12:22:47;34.17;;;12.65;;
22644;SDS011;11489;50.834;6.752;2023-11-21T12:25:18;31.13;;;11.38;;
22644;SDS011;11489;50.834;6.752;2023-11-21T12:27:48;34.28;;;12.68;;
22644;SDS011;11489;50.834;6.752;2023-11-21T12:30:16;38.10;;;13.65;;
22644;SDS011;11489;50.834;6.752;2023-11-21T12:32:44;37.55;;;12.95;;
22644;SDS011;11489;50.834;6.752;2023-11-21T12:35:13;36.65;;;13.43;;
22644;SDS011;11489;50.834;6.752;2023-11-21T12:37:39;36.70;;;12.88;;
22644;SDS011;11489;50.834;6.752;2023-11-21T12:40:08;30.13;;;12.52;;
22644;SDS011;11489;50.834;6.752;2023-11-21T12:42:46;36.03;;;14.05;;
22644;SDS011;11489;50.834;6.752;2023-11-21T12:47:52;31.83;;;12.30;;
22644;SDS011;11489;50.834;6.752;2023-11-21T12:50:25;25.98;;;11.35;;
22644;SDS011;11489;50.834;6.752;2023-11-21T12:53:09;32.38;;;12.10;;
22644;SDS011;11489;50.834;6.752;2023-11-21T12:55:41;29.63;;;12.70;;
22644;SDS011;11489;50.834;6.752;2023-11-21T12:58:09;27.77;;;11.05;;
22644;SDS011;11489;50.834;6.752;2023-11-21T13:00:37;28.83;;;10.70;;
22644;SDS011;11489;50.834;6.752;2023-11-21T13:03:05;32.13;;;12.05;;
22644;SDS011;11489;50.834;6.752;2023-11-21T13:05:36;25.95;;;11.38;;
22644;SDS011;11489;50.834;6.752;2023-11-21T13:08:07;31.45;;;12.30;;
22644;SDS011;11489;50.834;6.752;2023-11-21T13:10:35;30.27;;;11.32;;
22644;SDS011;11489;50.834;6.752;2023-11-21T13:13:02;32.80;;;12.02;;
22644;SDS011;11489;50.834;6.752;2023-11-21T13:15:39;32.30;;;12.25;;
22644;SDS011;11489;50.834;6.752;2023-11-21T13:18:08;32.35;;;14.30;;
22644;SDS011;11489;50.834;6.752;2023-11-21T13:20:36;27.13;;;12.07;;
22644;SDS011;11489;50.834;6.752;2023-11-21T13:23:06;31.70;;;12.32;;
22644;SDS011;11489;50.834;6.752;2023-11-21T13:25:33;32.78;;;12.38;;
22644;SDS011;11489;50.834;6.752;2023-11-21T13:28:00;30.67;;;12.50;;
22644;SDS011;11489;50.834;6.752;2023-11-21T13:30:26;28.35;;;11.82;;
22644;SDS011;11489;50.834;6.752;2023-11-21T13:32:55;25.45;;;11.48;;
22644;SDS011;11489;50.834;6.752;2023-11-21T13:35:29;24.65;;;11.07;;
22644;SDS011;11489;50.834;6.752;2023-11-21T13:38:03;24.00;;;10.57;;
22644;SDS011;11489;50.834;6.752;2023-11-21T13:40:31;22.05;;;10.10;;
22644;SDS011;11489;50.834;6.752;2023-11-21T13:42:59;24.25;;;10.48;;
22644;SDS011;11489;50.834;6.752;2023-11-21T13:45:29;20.63;;;10.13;;
22644;SDS011;11489;50.834;6.752;2023-11-21T13:47:56;21.55;;;10.02;;
22644;SDS011;11489;50.834;6.752;2023-11-21T13:50:24;24.40;;;9.65;;
22644;SDS011;11489;50.834;6.752;2023-11-21T13:52:55;17.55;;;8.95;;
22644;SDS011;11489;50.834;6.752;2023-11-21T13:55:21;21.23;;;10.20;;
22644;SDS011;11489;50.834;6.752;2023-11-21T13:57:50;24.25;;;10.43;;
22644;SDS011;11489;50.834;6.752;2023-11-21T14:00:17;20.70;;;9.35;;
22644;SDS011;11489;50.834;6.752;2023-11-21T14:03:09;29.95;;;10.75;;
22644;SDS011;11489;50.834;6.752;2023-11-21T14:05:43;25.30;;;10.70;;
22644;SDS011;11489;50.834;6.752;2023-11-21T14:08:09;26.25;;;11.32;;
22644;SDS011;11489;50.834;6.752;2023-11-21T14:10:37;30.25;;;12.43;;
22644;SDS011;11489;50.834;6.752;2023-11-21T14:13:08;25.45;;;11.68;;
22644;SDS011;11489;50.834;6.752;2023-11-21T14:15:41;27.45;;;11.75;;
22644;SDS011;11489;50.834;6.752;2023-11-21T14:18:10;22.33;;;11.57;;
22644;SDS011;11489;50.834;6.752;2023-11-21T14:20:39;27.75;;;12.35;;
22644;SDS011;11489;50.834;6.752;2023-11-21T14:23:06;30.35;;;12.48;;
22644;SDS011;11489;50.834;6.752;2023-11-21T14:25:34;25.67;;;11.43;;
22644;SDS011;11489;50.834;6.752;2023-11-21T14:28:07;25.73;;;11.52;;
22644;SDS011;11489;50.834;6.752;2023-11-21T14:30:33;29.77;;;11.10;;
22644;SDS011;11489;50.834;6.752;2023-11-21T14:33:01;30.42;;;11.98;;
22644;SDS011;11489;50.834;6.752;2023-11-21T14:35:27;27.00;;;11.40;;
22644;SDS011;11489;50.834;6.752;2023-11-21T14:37:55;26.15;;;11.35;;
22644;SDS011;11489;50.834;6.752;2023-11-21T14:40:21;26.08;;;11.48;;
22644;SDS011;11489;50.834;6.752;2023-11-21T14:42:50;27.30;;;10.70;;